sensor_id;sensor_type;location;lat;lon;timestamp;temperature;humidity
318;DHT22;146;53.448;10.228;2023-04-12T00:01:10;4.40;1.00
318;DHT22;146;53.448;10.228;2023-04-12T00:03:37;4.50;1.00
318;DHT22;146;53.448;10.228;2023-04-12T00:06:12;4.40;1.00
318;DHT22;146;53.448;10.228;2023-04-12T00:08:42;4.40;1.00
318;DHT22;146;53.448;10.228;2023-04-12T00:11:14;4.40;1.00
318;DHT22;146;53.448;10.228;2023-04-12T00:13:41;4.40;1.00
318;DHT22;146;53.448;10.228;2023-04-12T00:16:11;4.30;1.00
318;DHT22;146;53.448;10.228;2023-04-12T00:18:40;4.40;1.00
318;DHT22;146;53.448;10.228;2023-04-12T00:21:14;4.30;1.00
318;DHT22;146;53.448;10.228;2023-04-12T00:23:46;4.30;1.00
318;DHT22;146;53.448;10.228;2023-04-12T00:26:16;4.20;1.00
318;DHT22;146;53.448;10.228;2023-04-12T00:28:44;4.20;1.00
318;DHT22;146;53.448;10.228;2023-04-12T00:31:10;4.20;1.00
318;DHT22;146;53.448;10.228;2023-04-12T00:52:25;4.00;1.00
318;DHT22;146;53.448;10.228;2023-04-12T00:59:25;4.00;1.00
318;DHT22;146;53.448;10.228;2023-04-12T01:13:12;3.90;1.00
318;DHT22;146;53.448;10.228;2023-04-12T01:15:49;3.80;1.00
318;DHT22;146;53.448;10.228;2023-04-12T01:18:24;3.80;1.00
318;DHT22;146;53.448;10.228;2023-04-12T01:21:04;3.80;1.00
318;DHT22;146;53.448;10.228;2023-04-12T01:23:52;3.80;1.00
318;DHT22;146;53.448;10.228;2023-04-12T01:26:35;3.70;1.00
318;DHT22;146;53.448;10.228;2023-04-12T01:29:07;3.80;1.00
318;DHT22;146;53.448;10.228;2023-04-12T01:31:35;3.80;1.00
318;DHT22;146;53.448;10.228;2023-04-12T01:34:17;3.80;1.00
318;DHT22;146;53.448;10.228;2023-04-12T01:36:47;3.80;1.00
318;DHT22;146;53.448;10.228;2023-04-12T01:39:22;3.80;1.00
318;DHT22;146;53.448;10.228;2023-04-12T01:41:52;3.70;1.00
318;DHT22;146;53.448;10.228;2023-04-12T01:44:20;3.70;1.00
318;DHT22;146;53.448;10.228;2023-04-12T01:46:55;3.60;1.00
318;DHT22;146;53.448;10.228;2023-04-12T01:49:24;3.60;1.00
318;DHT22;146;53.448;10.228;2023-04-12T01:52:00;3.60;1.00
318;DHT22;146;53.448;10.228;2023-04-12T01:54:30;3.60;1.00
318;DHT22;146;53.448;10.228;2023-04-12T01:57:01;3.60;1.00
318;DHT22;146;53.448;10.228;2023-04-12T01:59:37;3.60;1.00
318;DHT22;146;53.448;10.228;2023-04-12T02:02:11;3.60;1.00
318;DHT22;146;53.448;10.228;2023-04-12T02:04:42;3.60;1.00
318;DHT22;146;53.448;10.228;2023-04-12T02:07:14;3.60;1.00
318;DHT22;146;53.448;10.228;2023-04-12T02:09:43;3.70;1.00
318;DHT22;146;53.448;10.228;2023-04-12T02:12:15;3.70;1.00
318;DHT22;146;53.448;10.228;2023-04-12T02:14:46;3.60;1.00
318;DHT22;146;53.448;10.228;2023-04-12T02:17:16;3.70;1.00
318;DHT22;146;53.448;10.228;2023-04-12T02:19:43;3.60;1.00
318;DHT22;146;53.448;10.228;2023-04-12T02:22:12;3.50;1.00
318;DHT22;146;53.448;10.228;2023-04-12T02:24:42;3.40;1.00
318;DHT22;146;53.448;10.228;2023-04-12T02:27:23;3.40;1.00
318;DHT22;146;53.448;10.228;2023-04-12T02:29:51;3.30;1.00
318;DHT22;146;53.448;10.228;2023-04-12T02:32:18;3.30;1.00
318;DHT22;146;53.448;10.228;2023-04-12T02:34:45;3.30;1.20
318;DHT22;146;53.448;10.228;2023-04-12T02:37:15;3.30;1.80
318;DHT22;146;53.448;10.228;2023-04-12T02:39:45;3.20;1.70
318;DHT22;146;53.448;10.228;2023-04-12T02:42:21;3.20;2.00
318;DHT22;146;53.448;10.228;2023-04-12T02:44:48;3.30;2.10
318;DHT22;146;53.448;10.228;2023-04-12T02:47:16;3.30;2.20
318;DHT22;146;53.448;10.228;2023-04-12T02:49:43;3.40;2.20
318;DHT22;146;53.448;10.228;2023-04-12T02:52:12;3.40;2.20
318;DHT22;146;53.448;10.228;2023-04-12T02:54:45;3.50;2.20
318;DHT22;146;53.448;10.228;2023-04-12T02:57:14;3.50;1.90
318;DHT22;146;53.448;10.228;2023-04-12T02:59:41;3.50;1.30
318;DHT22;146;53.448;10.228;2023-04-12T03:02:13;3.40;1.00
318;DHT22;146;53.448;10.228;2023-04-12T03:04:42;3.40;1.00
318;DHT22;146;53.448;10.228;2023-04-12T03:07:11;3.40;1.00
318;DHT22;146;53.448;10.228;2023-04-12T03:09:38;3.40;1.00
318;DHT22;146;53.448;10.228;2023-04-12T03:12:09;3.50;1.00
318;DHT22;146;53.448;10.228;2023-04-12T03:14:35;3.50;1.00
318;DHT22;146;53.448;10.228;2023-04-12T03:17:02;3.50;1.00
318;DHT22;146;53.448;10.228;2023-04-12T03:19:29;3.40;1.00
318;DHT22;146;53.448;10.228;2023-04-12T03:22:01;3.50;1.00
318;DHT22;146;53.448;10.228;2023-04-12T03:24:29;3.50;1.00
318;DHT22;146;53.448;10.228;2023-04-12T03:26:58;3.50;1.00
318;DHT22;146;53.448;10.228;2023-04-12T03:29:26;3.50;1.00
318;DHT22;146;53.448;10.228;2023-04-12T03:31:56;3.50;1.00
318;DHT22;146;53.448;10.228;2023-04-12T03:34:26;3.60;1.00
318;DHT22;146;53.448;10.228;2023-04-12T03:37:03;3.60;1.10
318;DHT22;146;53.448;10.228;2023-04-12T03:39:29;3.60;1.00
318;DHT22;146;53.448;10.228;2023-04-12T03:41:59;3.60;1.00
318;DHT22;146;53.448;10.228;2023-04-12T03:44:26;3.60;1.00
318;DHT22;146;53.448;10.228;2023-04-12T03:46:53;3.60;1.00
318;DHT22;146;53.448;10.228;2023-04-12T03:49:20;3.60;1.00
318;DHT22;146;53.448;10.228;2023-04-12T03:51:50;3.60;1.00
318;DHT22;146;53.448;10.228;2023-04-12T03:54:21;3.60;1.00
318;DHT22;146;53.448;10.228;2023-04-12T03:56:48;3.70;1.00
318;DHT22;146;53.448;10.228;2023-04-12T03:59:15;3.70;1.00
318;DHT22;146;53.448;10.228;2023-04-12T04:01:42;3.70;1.00
318;DHT22;146;53.448;10.228;2023-04-12T04:04:09;3.70;1.00
318;DHT22;146;53.448;10.228;2023-04-12T04:06:35;3.70;1.00
318;DHT22;146;53.448;10.228;2023-04-12T04:09:06;3.70;1.00
318;DHT22;146;53.448;10.228;2023-04-12T04:11:34;3.70;1.00
318;DHT22;146;53.448;10.228;2023-04-12T04:14:05;3.70;1.00
318;DHT22;146;53.448;10.228;2023-04-12T04:16:35;3.70;1.00
318;DHT22;146;53.448;10.228;2023-04-12T04:19:02;3.70;1.00
318;DHT22;146;53.448;10.228;2023-04-12T04:21:32;3.70;1.00
318;DHT22;146;53.448;10.228;2023-04-12T04:23:59;3.70;1.00
318;DHT22;146;53.448;10.228;2023-04-12T04:26:27;3.70;1.00
318;DHT22;146;53.448;10.228;2023-04-12T04:28:59;3.70;1.00
318;DHT22;146;53.448;10.228;2023-04-12T04:31:31;3.80;1.00
318;DHT22;146;53.448;10.228;2023-04-12T04:34:01;3.80;1.00
318;DHT22;146;53.448;10.228;2023-04-12T04:36:34;3.70;1.00
318;DHT22;146;53.448;10.228;2023-04-12T04:39:07;3.80;1.00
318;DHT22;146;53.448;10.228;2023-04-12T04:41:34;3.80;1.00
318;DHT22;146;53.448;10.228;2023-04-12T04:44:17;3.80;1.00
318;DHT22;146;53.448;10.228;2023-04-12T04:46:53;3.80;1.00
318;DHT22;146;53.448;10.228;2023-04-12T04:49:23;3.80;1.00
318;DHT22;146;53.448;10.228;2023-04-12T04:51:53;3.90;1.00
318;DHT22;146;53.448;10.228;2023-04-12T04:54:33;3.90;1.00
318;DHT22;146;53.448;10.228;2023-04-12T04:57:13;3.80;1.00
318;DHT22;146;53.448;10.228;2023-04-12T04:59:47;3.90;1.00
318;DHT22;146;53.448;10.228;2023-04-12T05:02:16;3.90;1.00
318;DHT22;146;53.448;10.228;2023-04-12T05:08:27;3.90;1.00
318;DHT22;146;53.448;10.228;2023-04-12T05:10:54;4.00;1.00
318;DHT22;146;53.448;10.228;2023-04-12T05:13:21;4.00;1.00
318;DHT22;146;53.448;10.228;2023-04-12T05:15:49;4.00;1.00
318;DHT22;146;53.448;10.228;2023-04-12T05:18:16;4.00;1.00
318;DHT22;146;53.448;10.228;2023-04-12T05:20:43;4.10;1.00
318;DHT22;146;53.448;10.228;2023-04-12T05:23:10;4.00;1.00
318;DHT22;146;53.448;10.228;2023-04-12T05:25:43;4.00;1.00
318;DHT22;146;53.448;10.228;2023-04-12T05:28:14;4.10;1.00
318;DHT22;146;53.448;10.228;2023-04-12T05:30:42;4.10;1.00
318;DHT22;146;53.448;10.228;2023-04-12T05:33:10;4.10;1.00
318;DHT22;146;53.448;10.228;2023-04-12T05:35:37;4.10;1.00
318;DHT22;146;53.448;10.228;2023-04-12T05:38:07;4.10;1.00
318;DHT22;146;53.448;10.228;2023-04-12T05:41:05;4.20;1.00
318;DHT22;146;53.448;10.228;2023-04-12T05:44:20;4.20;1.00
318;DHT22;146;53.448;10.228;2023-04-12T05:46:47;4.20;1.00
318;DHT22;146;53.448;10.228;2023-04-12T05:49:15;4.30;1.00
318;DHT22;146;53.448;10.228;2023-04-12T05:51:42;4.30;1.00
318;DHT22;146;53.448;10.228;2023-04-12T05:54:09;4.40;1.00
318;DHT22;146;53.448;10.228;2023-04-12T05:56:36;4.50;1.00
318;DHT22;146;53.448;10.228;2023-04-12T05:59:09;4.50;1.00
318;DHT22;146;53.448;10.228;2023-04-12T06:12:08;5.00;1.00
318;DHT22;146;53.448;10.228;2023-04-12T06:14:35;5.10;1.00
318;DHT22;146;53.448;10.228;2023-04-12T06:17:05;5.10;1.00
318;DHT22;146;53.448;10.228;2023-04-12T06:19:34;5.30;1.00
318;DHT22;146;53.448;10.228;2023-04-12T06:22:07;5.30;1.00
318;DHT22;146;53.448;10.228;2023-04-12T06:24:43;5.40;1.00
318;DHT22;146;53.448;10.228;2023-04-12T06:27:24;5.50;1.00
318;DHT22;146;53.448;10.228;2023-04-12T06:29:52;5.60;1.00
318;DHT22;146;53.448;10.228;2023-04-12T06:32:30;5.80;1.00
318;DHT22;146;53.448;10.228;2023-04-12T06:35:00;5.80;1.00
318;DHT22;146;53.448;10.228;2023-04-12T06:37:29;6.00;1.00
318;DHT22;146;53.448;10.228;2023-04-12T06:39:56;6.10;1.00
318;DHT22;146;53.448;10.228;2023-04-12T06:42:24;6.30;1.00
318;DHT22;146;53.448;10.228;2023-04-12T06:44:51;6.40;1.00
318;DHT22;146;53.448;10.228;2023-04-12T06:47:18;6.50;1.00
318;DHT22;146;53.448;10.228;2023-04-12T06:49:45;6.50;1.00
318;DHT22;146;53.448;10.228;2023-04-12T06:52:11;6.70;1.00
318;DHT22;146;53.448;10.228;2023-04-12T06:54:38;6.80;1.00
318;DHT22;146;53.448;10.228;2023-04-12T06:57:09;7.00;1.00
318;DHT22;146;53.448;10.228;2023-04-12T06:59:37;7.10;1.00
318;DHT22;146;53.448;10.228;2023-04-12T07:02:04;7.20;1.00
318;DHT22;146;53.448;10.228;2023-04-12T07:04:35;7.30;1.00
318;DHT22;146;53.448;10.228;2023-04-12T07:07:05;7.40;1.00
318;DHT22;146;53.448;10.228;2023-04-12T07:09:31;7.60;1.00
318;DHT22;146;53.448;10.228;2023-04-12T07:11:59;7.70;1.00
318;DHT22;146;53.448;10.228;2023-04-12T07:14:26;7.80;1.00
318;DHT22;146;53.448;10.228;2023-04-12T07:16:54;8.00;1.00
318;DHT22;146;53.448;10.228;2023-04-12T07:19:30;8.30;1.00
318;DHT22;146;53.448;10.228;2023-04-12T07:21:57;8.60;1.00
318;DHT22;146;53.448;10.228;2023-04-12T07:24:27;8.80;1.00
318;DHT22;146;53.448;10.228;2023-04-12T07:27:00;8.90;1.00
318;DHT22;146;53.448;10.228;2023-04-12T07:29:26;8.90;1.00
318;DHT22;146;53.448;10.228;2023-04-12T07:31:58;9.10;1.00
318;DHT22;146;53.448;10.228;2023-04-12T07:34:31;9.20;1.00
318;DHT22;146;53.448;10.228;2023-04-12T07:36:58;9.40;1.00
318;DHT22;146;53.448;10.228;2023-04-12T07:39:31;9.40;1.00
318;DHT22;146;53.448;10.228;2023-04-12T07:42:07;9.40;1.00
318;DHT22;146;53.448;10.228;2023-04-12T07:44:34;9.40;1.00
318;DHT22;146;53.448;10.228;2023-04-12T07:47:03;9.50;1.00
318;DHT22;146;53.448;10.228;2023-04-12T07:49:29;9.60;1.00
318;DHT22;146;53.448;10.228;2023-04-12T07:51:59;9.70;1.00
318;DHT22;146;53.448;10.228;2023-04-12T07:54:29;9.70;1.00
318;DHT22;146;53.448;10.228;2023-04-12T07:56:59;9.80;1.00
318;DHT22;146;53.448;10.228;2023-04-12T07:59:27;9.80;1.00
318;DHT22;146;53.448;10.228;2023-04-12T08:01:56;9.80;1.00
318;DHT22;146;53.448;10.228;2023-04-12T08:04:25;9.90;1.00
318;DHT22;146;53.448;10.228;2023-04-12T08:06:55;9.90;1.00
318;DHT22;146;53.448;10.228;2023-04-12T08:09:22;9.90;1.00
318;DHT22;146;53.448;10.228;2023-04-12T08:11:49;9.80;1.00
318;DHT22;146;53.448;10.228;2023-04-12T08:14:19;9.80;1.00
318;DHT22;146;53.448;10.228;2023-04-12T08:16:51;9.80;1.00
318;DHT22;146;53.448;10.228;2023-04-12T08:19:28;9.80;1.00
318;DHT22;146;53.448;10.228;2023-04-12T08:21:59;9.70;1.00
318;DHT22;146;53.448;10.228;2023-04-12T08:24:27;9.60;1.00
318;DHT22;146;53.448;10.228;2023-04-12T08:27:05;9.60;1.00
318;DHT22;146;53.448;10.228;2023-04-12T08:29:32;9.60;1.00
318;DHT22;146;53.448;10.228;2023-04-12T08:32:05;9.60;1.00
318;DHT22;146;53.448;10.228;2023-04-12T08:34:38;9.70;1.00
318;DHT22;146;53.448;10.228;2023-04-12T08:37:08;9.80;1.00
318;DHT22;146;53.448;10.228;2023-04-12T08:39:37;9.70;1.00
318;DHT22;146;53.448;10.228;2023-04-12T08:42:13;9.60;1.00
318;DHT22;146;53.448;10.228;2023-04-12T08:44:44;9.60;1.00
318;DHT22;146;53.448;10.228;2023-04-12T08:47:15;9.50;1.00
318;DHT22;146;53.448;10.228;2023-04-12T08:49:48;9.70;1.00
318;DHT22;146;53.448;10.228;2023-04-12T08:52:19;9.70;1.00
318;DHT22;146;53.448;10.228;2023-04-12T08:54:51;9.60;1.00
318;DHT22;146;53.448;10.228;2023-04-12T08:57:18;9.60;1.00
318;DHT22;146;53.448;10.228;2023-04-12T08:59:46;9.50;1.00
318;DHT22;146;53.448;10.228;2023-04-12T09:02:14;9.50;1.00
318;DHT22;146;53.448;10.228;2023-04-12T09:04:48;9.50;1.00
318;DHT22;146;53.448;10.228;2023-04-12T09:07:16;9.40;1.00
318;DHT22;146;53.448;10.228;2023-04-12T09:09:45;9.50;1.00
318;DHT22;146;53.448;10.228;2023-04-12T09:12:16;9.60;1.00
318;DHT22;146;53.448;10.228;2023-04-12T09:15:06;9.60;1.00
318;DHT22;146;53.448;10.228;2023-04-12T09:17:34;9.70;1.00
318;DHT22;146;53.448;10.228;2023-04-12T09:20:21;9.80;1.00
318;DHT22;146;53.448;10.228;2023-04-12T09:22:52;9.80;1.00
318;DHT22;146;53.448;10.228;2023-04-12T09:25:35;10.00;1.00
318;DHT22;146;53.448;10.228;2023-04-12T09:28:20;10.20;1.00
318;DHT22;146;53.448;10.228;2023-04-12T09:30:54;10.40;1.00
318;DHT22;146;53.448;10.228;2023-04-12T09:33:23;10.60;1.00
318;DHT22;146;53.448;10.228;2023-04-12T09:36:03;10.70;1.00
318;DHT22;146;53.448;10.228;2023-04-12T09:38:30;10.80;1.00
318;DHT22;146;53.448;10.228;2023-04-12T09:41:14;10.90;1.00
318;DHT22;146;53.448;10.228;2023-04-12T09:43:44;10.90;1.00
318;DHT22;146;53.448;10.228;2023-04-12T09:46:12;10.90;1.00
318;DHT22;146;53.448;10.228;2023-04-12T09:48:47;11.00;1.00
318;DHT22;146;53.448;10.228;2023-04-12T09:51:25;11.10;1.00
318;DHT22;146;53.448;10.228;2023-04-12T09:53:54;11.10;1.00
318;DHT22;146;53.448;10.228;2023-04-12T09:56:32;11.20;1.00
318;DHT22;146;53.448;10.228;2023-04-12T09:59:01;11.20;1.00
318;DHT22;146;53.448;10.228;2023-04-12T10:01:29;11.10;1.00
318;DHT22;146;53.448;10.228;2023-04-12T10:03:59;11.00;1.00
318;DHT22;146;53.448;10.228;2023-04-12T10:06:27;11.00;1.00
318;DHT22;146;53.448;10.228;2023-04-12T10:08:55;11.10;1.00
318;DHT22;146;53.448;10.228;2023-04-12T10:11:35;11.10;1.00
318;DHT22;146;53.448;10.228;2023-04-12T10:14:26;11.30;1.00
318;DHT22;146;53.448;10.228;2023-04-12T10:20:30;11.30;1.00
318;DHT22;146;53.448;10.228;2023-04-12T10:22:59;11.40;1.00
318;DHT22;146;53.448;10.228;2023-04-12T10:29:23;11.40;1.00
318;DHT22;146;53.448;10.228;2023-04-12T10:31:50;11.40;1.00
318;DHT22;146;53.448;10.228;2023-04-12T10:34:17;11.40;1.00
318;DHT22;146;53.448;10.228;2023-04-12T10:36:52;11.40;1.00
318;DHT22;146;53.448;10.228;2023-04-12T10:39:51;11.50;1.00
318;DHT22;146;53.448;10.228;2023-04-12T10:42:20;11.50;1.00
318;DHT22;146;53.448;10.228;2023-04-12T10:44:48;11.50;1.00
318;DHT22;146;53.448;10.228;2023-04-12T10:47:54;11.40;1.00
318;DHT22;146;53.448;10.228;2023-04-12T10:50:24;11.40;1.00
318;DHT22;146;53.448;10.228;2023-04-12T10:53:24;11.40;1.00
318;DHT22;146;53.448;10.228;2023-04-12T10:55:52;11.50;1.00
318;DHT22;146;53.448;10.228;2023-04-12T10:58:54;11.60;1.00
318;DHT22;146;53.448;10.228;2023-04-12T11:01:21;11.60;1.00
318;DHT22;146;53.448;10.228;2023-04-12T11:04:07;11.60;1.00
318;DHT22;146;53.448;10.228;2023-04-12T11:06:48;11.50;1.00
318;DHT22;146;53.448;10.228;2023-04-12T11:09:17;11.10;1.00
318;DHT22;146;53.448;10.228;2023-04-12T11:11:45;11.00;1.00
318;DHT22;146;53.448;10.228;2023-04-12T11:14:14;10.80;1.00
318;DHT22;146;53.448;10.228;2023-04-12T11:19:53;10.60;1.00
318;DHT22;146;53.448;10.228;2023-04-12T11:22:40;10.50;1.00
318;DHT22;146;53.448;10.228;2023-04-12T11:25:15;10.40;1.00
318;DHT22;146;53.448;10.228;2023-04-12T11:27:51;10.40;1.00
318;DHT22;146;53.448;10.228;2023-04-12T11:30:19;10.30;1.00
318;DHT22;146;53.448;10.228;2023-04-12T11:32:56;10.20;1.00
318;DHT22;146;53.448;10.228;2023-04-12T11:35:29;10.20;1.00
318;DHT22;146;53.448;10.228;2023-04-12T11:37:56;10.20;1.00
318;DHT22;146;53.448;10.228;2023-04-12T11:40:26;10.20;1.00
318;DHT22;146;53.448;10.228;2023-04-12T11:42:54;10.10;1.00
318;DHT22;146;53.448;10.228;2023-04-12T11:45:22;10.20;1.00
318;DHT22;146;53.448;10.228;2023-04-12T11:47:49;10.10;1.00
318;DHT22;146;53.448;10.228;2023-04-12T11:50:32;10.00;1.00
318;DHT22;146;53.448;10.228;2023-04-12T11:53:10;10.00;1.00
318;DHT22;146;53.448;10.228;2023-04-12T11:55:37;10.00;1.00
318;DHT22;146;53.448;10.228;2023-04-12T11:58:06;9.90;1.00
318;DHT22;146;53.448;10.228;2023-04-12T12:00:33;9.80;1.00
318;DHT22;146;53.448;10.228;2023-04-12T12:03:03;9.80;1.00
318;DHT22;146;53.448;10.228;2023-04-12T12:05:30;9.70;1.00
318;DHT22;146;53.448;10.228;2023-04-12T12:08:01;9.60;1.00
318;DHT22;146;53.448;10.228;2023-04-12T12:10:35;9.70;1.00
318;DHT22;146;53.448;10.228;2023-04-12T12:16:22;9.80;1.00
318;DHT22;146;53.448;10.228;2023-04-12T12:18:49;9.80;1.00
318;DHT22;146;53.448;10.228;2023-04-12T12:21:22;9.80;1.00
318;DHT22;146;53.448;10.228;2023-04-12T12:23:51;9.90;1.00
318;DHT22;146;53.448;10.228;2023-04-12T12:26:23;9.90;1.00
318;DHT22;146;53.448;10.228;2023-04-12T12:28:53;9.90;1.00
318;DHT22;146;53.448;10.228;2023-04-12T12:31:26;9.90;1.00
318;DHT22;146;53.448;10.228;2023-04-12T12:33:56;9.90;1.00
318;DHT22;146;53.448;10.228;2023-04-12T12:36:30;10.00;1.00
318;DHT22;146;53.448;10.228;2023-04-12T12:39:05;10.10;1.00
318;DHT22;146;53.448;10.228;2023-04-12T12:41:38;10.00;1.00
318;DHT22;146;53.448;10.228;2023-04-12T12:44:05;10.00;1.00
318;DHT22;146;53.448;10.228;2023-04-12T12:46:36;10.10;1.00
318;DHT22;146;53.448;10.228;2023-04-12T12:49:06;10.00;1.00
318;DHT22;146;53.448;10.228;2023-04-12T12:51:33;9.90;1.00
318;DHT22;146;53.448;10.228;2023-04-12T12:54:00;9.80;1.00
318;DHT22;146;53.448;10.228;2023-04-12T12:59:49;9.60;1.00
318;DHT22;146;53.448;10.228;2023-04-12T13:02:17;9.50;1.00
318;DHT22;146;53.448;10.228;2023-04-12T13:04:44;9.60;1.00
318;DHT22;146;53.448;10.228;2023-04-12T13:07:11;9.50;1.00
318;DHT22;146;53.448;10.228;2023-04-12T13:09:37;9.50;1.00
318;DHT22;146;53.448;10.228;2023-04-12T13:12:04;9.50;1.00
318;DHT22;146;53.448;10.228;2023-04-12T13:14:34;9.40;1.00
318;DHT22;146;53.448;10.228;2023-04-12T13:17:13;9.40;1.00
318;DHT22;146;53.448;10.228;2023-04-12T13:19:47;9.40;1.00
318;DHT22;146;53.448;10.228;2023-04-12T13:22:14;9.50;1.00
318;DHT22;146;53.448;10.228;2023-04-12T13:24:44;9.60;1.00
318;DHT22;146;53.448;10.228;2023-04-12T13:27:14;9.60;1.00
318;DHT22;146;53.448;10.228;2023-04-12T13:29:41;9.70;1.60
318;DHT22;146;53.448;10.228;2023-04-12T13:32:08;9.80;1.00
318;DHT22;146;53.448;10.228;2023-04-12T13:34:44;9.80;1.00
318;DHT22;146;53.448;10.228;2023-04-12T13:37:19;9.80;1.00
318;DHT22;146;53.448;10.228;2023-04-12T13:39:58;9.80;1.00
318;DHT22;146;53.448;10.228;2023-04-12T13:42:28;9.80;1.00
318;DHT22;146;53.448;10.228;2023-04-12T13:44:58;9.80;1.00
318;DHT22;146;53.448;10.228;2023-04-12T13:47:31;9.90;1.00
318;DHT22;146;53.448;10.228;2023-04-12T13:50:00;10.00;1.00
318;DHT22;146;53.448;10.228;2023-04-12T13:52:28;10.00;1.00
318;DHT22;146;53.448;10.228;2023-04-12T13:54:55;10.00;1.00
318;DHT22;146;53.448;10.228;2023-04-12T13:57:24;10.00;1.00
318;DHT22;146;53.448;10.228;2023-04-12T13:59:52;9.80;1.00
318;DHT22;146;53.448;10.228;2023-04-12T14:02:22;9.80;1.00
318;DHT22;146;53.448;10.228;2023-04-12T14:04:49;9.80;1.00
318;DHT22;146;53.448;10.228;2023-04-12T14:07:23;9.90;1.30
318;DHT22;146;53.448;10.228;2023-04-12T14:09:51;9.90;1.00
318;DHT22;146;53.448;10.228;2023-04-12T14:12:20;9.90;1.00
318;DHT22;146;53.448;10.228;2023-04-12T14:17:14;9.70;1.00
318;DHT22;146;53.448;10.228;2023-04-12T14:19:41;9.70;1.00
318;DHT22;146;53.448;10.228;2023-04-12T14:22:10;9.70;1.00
318;DHT22;146;53.448;10.228;2023-04-12T14:24:42;9.80;1.00
318;DHT22;146;53.448;10.228;2023-04-12T14:27:35;9.80;1.00
318;DHT22;146;53.448;10.228;2023-04-12T14:30:22;9.80;1.00
318;DHT22;146;53.448;10.228;2023-04-12T14:33:12;9.80;1.00
318;DHT22;146;53.448;10.228;2023-04-12T14:35:59;9.80;1.00
318;DHT22;146;53.448;10.228;2023-04-12T14:38:52;9.80;1.00
318;DHT22;146;53.448;10.228;2023-04-12T14:41:42;9.70;1.00
318;DHT22;146;53.448;10.228;2023-04-12T14:44:31;9.70;1.00
318;DHT22;146;53.448;10.228;2023-04-12T14:47:18;9.70;1.00
318;DHT22;146;53.448;10.228;2023-04-12T14:50:08;9.70;1.00
318;DHT22;146;53.448;10.228;2023-04-12T14:52:58;9.70;1.00
318;DHT22;146;53.448;10.228;2023-04-12T14:55:45;9.70;1.00
318;DHT22;146;53.448;10.228;2023-04-12T14:58:35;9.70;1.00
318;DHT22;146;53.448;10.228;2023-04-12T15:01:37;9.80;1.00
318;DHT22;146;53.448;10.228;2023-04-12T15:04:25;9.80;1.00
318;DHT22;146;53.448;10.228;2023-04-12T15:07:12;9.80;1.10
318;DHT22;146;53.448;10.228;2023-04-12T15:10:03;9.80;1.80
318;DHT22;146;53.448;10.228;2023-04-12T15:12:51;9.80;2.00
318;DHT22;146;53.448;10.228;2023-04-12T15:15:41;9.70;1.50
318;DHT22;146;53.448;10.228;2023-04-12T15:18:36;9.70;1.40
318;DHT22;146;53.448;10.228;2023-04-12T15:21:24;9.70;1.50
318;DHT22;146;53.448;10.228;2023-04-12T15:24:12;9.70;2.10
318;DHT22;146;53.448;10.228;2023-04-12T15:27:03;9.80;2.40
318;DHT22;146;53.448;10.228;2023-04-12T15:29:50;9.70;1.70
318;DHT22;146;53.448;10.228;2023-04-12T15:32:38;9.70;1.90
318;DHT22;146;53.448;10.228;2023-04-12T15:35:27;9.70;1.70
318;DHT22;146;53.448;10.228;2023-04-12T15:38:15;9.70;1.70
318;DHT22;146;53.448;10.228;2023-04-12T15:41:02;9.70;2.10
318;DHT22;146;53.448;10.228;2023-04-12T15:43:51;9.70;2.60
318;DHT22;146;53.448;10.228;2023-04-12T15:46:38;9.70;3.00
318;DHT22;146;53.448;10.228;2023-04-12T15:49:25;9.70;2.00
318;DHT22;146;53.448;10.228;2023-04-12T15:52:14;9.70;2.30
318;DHT22;146;53.448;10.228;2023-04-12T15:55:08;9.80;2.30
318;DHT22;146;53.448;10.228;2023-04-12T15:57:56;9.80;2.10
318;DHT22;146;53.448;10.228;2023-04-12T16:00:46;9.80;1.80
318;DHT22;146;53.448;10.228;2023-04-12T16:03:40;9.80;1.60
318;DHT22;146;53.448;10.228;2023-04-12T16:06:37;9.80;1.80
318;DHT22;146;53.448;10.228;2023-04-12T16:09:26;9.80;1.40
318;DHT22;146;53.448;10.228;2023-04-12T16:12:13;9.70;1.00
318;DHT22;146;53.448;10.228;2023-04-12T16:15:00;9.60;1.60
318;DHT22;146;53.448;10.228;2023-04-12T16:17:48;9.70;1.70
318;DHT22;146;53.448;10.228;2023-04-12T16:20:36;9.70;2.00
318;DHT22;146;53.448;10.228;2023-04-12T16:23:24;9.80;2.40
318;DHT22;146;53.448;10.228;2023-04-12T16:26:15;9.80;2.00
318;DHT22;146;53.448;10.228;2023-04-12T16:29:06;9.80;1.40
318;DHT22;146;53.448;10.228;2023-04-12T16:31:56;9.80;1.20
318;DHT22;146;53.448;10.228;2023-04-12T16:34:45;9.80;1.20
318;DHT22;146;53.448;10.228;2023-04-12T16:37:32;9.70;1.20
318;DHT22;146;53.448;10.228;2023-04-12T16:40:20;9.70;1.30
318;DHT22;146;53.448;10.228;2023-04-12T16:43:08;9.60;1.50
318;DHT22;146;53.448;10.228;2023-04-12T16:46:08;9.60;1.40
318;DHT22;146;53.448;10.228;2023-04-12T16:49:06;9.70;1.60
318;DHT22;146;53.448;10.228;2023-04-12T16:51:53;9.80;1.70
318;DHT22;146;53.448;10.228;2023-04-12T16:54:43;9.80;1.70
318;DHT22;146;53.448;10.228;2023-04-12T16:57:34;9.80;1.70
318;DHT22;146;53.448;10.228;2023-04-12T17:00:32;9.80;1.00
318;DHT22;146;53.448;10.228;2023-04-12T17:03:38;9.80;1.00
318;DHT22;146;53.448;10.228;2023-04-12T17:06:25;9.80;1.00
318;DHT22;146;53.448;10.228;2023-04-12T17:09:15;9.70;1.00
318;DHT22;146;53.448;10.228;2023-04-12T17:12:02;9.70;1.70
318;DHT22;146;53.448;10.228;2023-04-12T17:14:49;9.70;1.70
318;DHT22;146;53.448;10.228;2023-04-12T17:17:38;9.70;2.00
318;DHT22;146;53.448;10.228;2023-04-12T17:20:25;9.70;1.60
318;DHT22;146;53.448;10.228;2023-04-12T17:23:12;9.70;1.50
318;DHT22;146;53.448;10.228;2023-04-12T17:26:00;9.70;1.40
318;DHT22;146;53.448;10.228;2023-04-12T17:28:48;9.70;1.10
318;DHT22;146;53.448;10.228;2023-04-12T17:31:35;9.70;1.10
318;DHT22;146;53.448;10.228;2023-04-12T17:34:25;9.70;1.10
318;DHT22;146;53.448;10.228;2023-04-12T17:37:12;9.60;1.70
318;DHT22;146;53.448;10.228;2023-04-12T17:39:59;9.70;1.30
318;DHT22;146;53.448;10.228;2023-04-12T17:42:46;9.80;1.00
318;DHT22;146;53.448;10.228;2023-04-12T17:45:33;9.80;1.00
318;DHT22;146;53.448;10.228;2023-04-12T17:48:21;9.80;1.00
318;DHT22;146;53.448;10.228;2023-04-12T17:51:09;9.80;1.00
318;DHT22;146;53.448;10.228;2023-04-12T17:53:56;9.70;1.00
318;DHT22;146;53.448;10.228;2023-04-12T17:56:47;9.80;1.10
318;DHT22;146;53.448;10.228;2023-04-12T17:59:34;9.80;1.10
318;DHT22;146;53.448;10.228;2023-04-12T18:02:25;9.80;1.30
318;DHT22;146;53.448;10.228;2023-04-12T18:05:12;9.80;1.50
318;DHT22;146;53.448;10.228;2023-04-12T18:08:02;9.80;1.20
318;DHT22;146;53.448;10.228;2023-04-12T18:10:49;9.70;1.00
318;DHT22;146;53.448;10.228;2023-04-12T18:13:37;9.60;1.00
318;DHT22;146;53.448;10.228;2023-04-12T18:16:24;9.60;1.30
318;DHT22;146;53.448;10.228;2023-04-12T18:19:14;9.50;1.50
318;DHT22;146;53.448;10.228;2023-04-12T18:22:03;9.40;2.00
318;DHT22;146;53.448;10.228;2023-04-12T18:24:52;9.30;2.30
318;DHT22;146;53.448;10.228;2023-04-12T18:27:39;9.30;2.70
318;DHT22;146;53.448;10.228;2023-04-12T18:30:29;9.30;2.90
318;DHT22;146;53.448;10.228;2023-04-12T18:33:16;9.20;3.50
318;DHT22;146;53.448;10.228;2023-04-12T18:36:03;9.10;3.80
318;DHT22;146;53.448;10.228;2023-04-12T18:38:50;9.10;4.40
318;DHT22;146;53.448;10.228;2023-04-12T18:41:39;9.10;4.60
318;DHT22;146;53.448;10.228;2023-04-12T18:44:49;9.10;4.80
318;DHT22;146;53.448;10.228;2023-04-12T18:47:36;9.20;5.00
318;DHT22;146;53.448;10.228;2023-04-12T18:50:24;9.20;5.00
318;DHT22;146;53.448;10.228;2023-04-12T18:53:12;9.20;5.00